sensor_id;sensor_type;location;lat;lon;timestamp;temperature;humidity
31695;DHT22;18289;51.330;4.946;2024-02-26T00:02:18;7.10;99.90
31695;DHT22;18289;51.330;4.946;2024-02-26T00:04:43;7.00;99.90
31695;DHT22;18289;51.330;4.946;2024-02-26T00:07:09;7.00;99.90
31695;DHT22;18289;51.330;4.946;2024-02-26T00:09:35;7.00;99.90
31695;DHT22;18289;51.330;4.946;2024-02-26T00:12:03;6.90;99.90
31695;DHT22;18289;51.330;4.946;2024-02-26T00:14:32;6.90;99.90
31695;DHT22;18289;51.330;4.946;2024-02-26T00:16:57;6.90;99.90
31695;DHT22;18289;51.330;4.946;2024-02-26T00:19:23;6.90;99.90
31695;DHT22;18289;51.330;4.946;2024-02-26T00:21:49;6.80;99.90
31695;DHT22;18289;51.330;4.946;2024-02-26T00:24:14;6.90;99.90
31695;DHT22;18289;51.330;4.946;2024-02-26T00:26:40;6.90;99.90
31695;DHT22;18289;51.330;4.946;2024-02-26T00:29:06;6.90;99.90
31695;DHT22;18289;51.330;4.946;2024-02-26T00:31:31;7.00;99.90
31695;DHT22;18289;51.330;4.946;2024-02-26T00:33:57;6.90;99.90
31695;DHT22;18289;51.330;4.946;2024-02-26T00:36:23;6.90;99.90
31695;DHT22;18289;51.330;4.946;2024-02-26T00:38:49;6.90;99.90
31695;DHT22;18289;51.330;4.946;2024-02-26T00:41:18;6.90;99.90
31695;DHT22;18289;51.330;4.946;2024-02-26T00:43:44;6.90;99.90
31695;DHT22;18289;51.330;4.946;2024-02-26T00:46:10;6.80;99.90
31695;DHT22;18289;51.330;4.946;2024-02-26T00:48:36;6.80;99.90
31695;DHT22;18289;51.330;4.946;2024-02-26T00:51:03;6.70;99.90
31695;DHT22;18289;51.330;4.946;2024-02-26T00:53:31;6.70;99.90
31695;DHT22;18289;51.330;4.946;2024-02-26T00:55:57;6.70;99.90
31695;DHT22;18289;51.330;4.946;2024-02-26T00:58:24;6.80;99.90
31695;DHT22;18289;51.330;4.946;2024-02-26T01:00:50;6.70;99.90
31695;DHT22;18289;51.330;4.946;2024-02-26T01:03:19;6.60;99.90
31695;DHT22;18289;51.330;4.946;2024-02-26T01:05:45;6.60;99.90
31695;DHT22;18289;51.330;4.946;2024-02-26T01:08:12;6.60;99.90
31695;DHT22;18289;51.330;4.946;2024-02-26T01:10:38;6.70;99.90
31695;DHT22;18289;51.330;4.946;2024-02-26T01:13:03;6.60;99.90
31695;DHT22;18289;51.330;4.946;2024-02-26T01:15:29;6.60;99.90
31695;DHT22;18289;51.330;4.946;2024-02-26T01:17:55;6.70;99.90
31695;DHT22;18289;51.330;4.946;2024-02-26T01:20:21;6.70;99.90
31695;DHT22;18289;51.330;4.946;2024-02-26T01:22:46;6.60;99.90
31695;DHT22;18289;51.330;4.946;2024-02-26T01:25:13;6.70;99.90
31695;DHT22;18289;51.330;4.946;2024-02-26T01:27:41;6.70;99.90
31695;DHT22;18289;51.330;4.946;2024-02-26T01:30:08;6.60;99.90
31695;DHT22;18289;51.330;4.946;2024-02-26T01:32:34;6.60;99.90
31695;DHT22;18289;51.330;4.946;2024-02-26T01:35:01;6.70;99.90
31695;DHT22;18289;51.330;4.946;2024-02-26T01:37:29;6.60;99.90
31695;DHT22;18289;51.330;4.946;2024-02-26T01:39:55;6.50;99.90
31695;DHT22;18289;51.330;4.946;2024-02-26T01:42:21;6.50;99.90
31695;DHT22;18289;51.330;4.946;2024-02-26T01:44:47;6.60;99.90
31695;DHT22;18289;51.330;4.946;2024-02-26T01:47:13;6.60;99.90
31695;DHT22;18289;51.330;4.946;2024-02-26T01:49:40;6.50;99.90
31695;DHT22;18289;51.330;4.946;2024-02-26T01:54:35;6.40;99.90
31695;DHT22;18289;51.330;4.946;2024-02-26T01:57:02;6.40;99.90
31695;DHT22;18289;51.330;4.946;2024-02-26T01:59:29;6.50;99.90
31695;DHT22;18289;51.330;4.946;2024-02-26T02:01:57;6.50;99.90
31695;DHT22;18289;51.330;4.946;2024-02-26T02:04:23;6.40;99.90
31695;DHT22;18289;51.330;4.946;2024-02-26T02:06:50;6.40;99.90
31695;DHT22;18289;51.330;4.946;2024-02-26T02:09:18;6.30;99.90
31695;DHT22;18289;51.330;4.946;2024-02-26T02:11:44;6.30;99.90
31695;DHT22;18289;51.330;4.946;2024-02-26T02:16:38;6.30;99.90
31695;DHT22;18289;51.330;4.946;2024-02-26T02:19:03;6.30;99.90
31695;DHT22;18289;51.330;4.946;2024-02-26T02:21:29;6.30;99.90
31695;DHT22;18289;51.330;4.946;2024-02-26T02:23:55;6.30;99.90
31695;DHT22;18289;51.330;4.946;2024-02-26T02:26:20;6.30;99.90
31695;DHT22;18289;51.330;4.946;2024-02-26T02:28:46;6.40;99.90
31695;DHT22;18289;51.330;4.946;2024-02-26T02:31:13;6.40;99.90
31695;DHT22;18289;51.330;4.946;2024-02-26T02:33:39;6.40;99.90
31695;DHT22;18289;51.330;4.946;2024-02-26T02:36:05;6.40;99.90
31695;DHT22;18289;51.330;4.946;2024-02-26T02:38:38;6.40;99.90
31695;DHT22;18289;51.330;4.946;2024-02-26T02:41:04;6.30;99.90
31695;DHT22;18289;51.330;4.946;2024-02-26T02:43:30;6.30;99.90
31695;DHT22;18289;51.330;4.946;2024-02-26T02:45:56;6.30;99.90
31695;DHT22;18289;51.330;4.946;2024-02-26T02:48:21;6.40;99.90
31695;DHT22;18289;51.330;4.946;2024-02-26T02:50:47;6.30;99.90
31695;DHT22;18289;51.330;4.946;2024-02-26T02:53:13;6.30;99.90
31695;DHT22;18289;51.330;4.946;2024-02-26T02:55:38;6.30;99.90
31695;DHT22;18289;51.330;4.946;2024-02-26T02:58:04;6.30;99.90
31695;DHT22;18289;51.330;4.946;2024-02-26T03:00:30;6.30;99.90
31695;DHT22;18289;51.330;4.946;2024-02-26T03:02:55;6.40;99.90
31695;DHT22;18289;51.330;4.946;2024-02-26T03:05:21;6.40;99.90
31695;DHT22;18289;51.330;4.946;2024-02-26T03:07:47;6.40;99.90
31695;DHT22;18289;51.330;4.946;2024-02-26T03:10:13;6.30;99.90
31695;DHT22;18289;51.330;4.946;2024-02-26T03:12:39;6.30;99.90
31695;DHT22;18289;51.330;4.946;2024-02-26T03:15:05;6.40;99.90
31695;DHT22;18289;51.330;4.946;2024-02-26T03:17:31;6.30;99.90
31695;DHT22;18289;51.330;4.946;2024-02-26T03:19:56;6.30;99.90
31695;DHT22;18289;51.330;4.946;2024-02-26T03:22:22;6.40;99.90
31695;DHT22;18289;51.330;4.946;2024-02-26T03:24:49;6.40;99.90
31695;DHT22;18289;51.330;4.946;2024-02-26T03:27:15;6.40;99.90
31695;DHT22;18289;51.330;4.946;2024-02-26T03:29:41;6.40;99.90
31695;DHT22;18289;51.330;4.946;2024-02-26T03:32:06;6.40;99.90
31695;DHT22;18289;51.330;4.946;2024-02-26T03:34:33;6.30;99.90
31695;DHT22;18289;51.330;4.946;2024-02-26T03:37:01;6.40;99.90
31695;DHT22;18289;51.330;4.946;2024-02-26T03:39:27;6.40;99.90
31695;DHT22;18289;51.330;4.946;2024-02-26T03:41:52;6.30;99.90
31695;DHT22;18289;51.330;4.946;2024-02-26T03:44:18;6.30;99.90
31695;DHT22;18289;51.330;4.946;2024-02-26T03:46:44;6.30;99.90
31695;DHT22;18289;51.330;4.946;2024-02-26T03:49:10;6.30;99.90
31695;DHT22;18289;51.330;4.946;2024-02-26T03:51:35;6.30;99.90
31695;DHT22;18289;51.330;4.946;2024-02-26T03:54:01;6.20;99.90
31695;DHT22;18289;51.330;4.946;2024-02-26T03:56:27;6.20;99.90
31695;DHT22;18289;51.330;4.946;2024-02-26T03:58:53;6.30;99.90
31695;DHT22;18289;51.330;4.946;2024-02-26T04:01:20;6.30;99.90
31695;DHT22;18289;51.330;4.946;2024-02-26T04:03:45;6.20;99.90
31695;DHT22;18289;51.330;4.946;2024-02-26T04:06:11;6.20;99.90
31695;DHT22;18289;51.330;4.946;2024-02-26T04:08:40;6.30;99.90
31695;DHT22;18289;51.330;4.946;2024-02-26T04:11:06;6.10;99.90
31695;DHT22;18289;51.330;4.946;2024-02-26T04:13:35;6.00;99.90
31695;DHT22;18289;51.330;4.946;2024-02-26T04:16:05;6.20;99.90
31695;DHT22;18289;51.330;4.946;2024-02-26T04:18:59;6.20;99.90
31695;DHT22;18289;51.330;4.946;2024-02-26T04:21:24;6.40;99.90
31695;DHT22;18289;51.330;4.946;2024-02-26T04:23:50;6.30;99.90
31695;DHT22;18289;51.330;4.946;2024-02-26T04:26:16;6.40;99.90
31695;DHT22;18289;51.330;4.946;2024-02-26T04:28:42;6.30;99.90
31695;DHT22;18289;51.330;4.946;2024-02-26T04:31:08;6.30;99.90
31695;DHT22;18289;51.330;4.946;2024-02-26T04:33:36;6.30;99.90
31695;DHT22;18289;51.330;4.946;2024-02-26T04:36:02;6.30;99.90
31695;DHT22;18289;51.330;4.946;2024-02-26T04:38:28;6.30;99.90
31695;DHT22;18289;51.330;4.946;2024-02-26T04:40:54;6.20;99.90
31695;DHT22;18289;51.330;4.946;2024-02-26T04:43:19;6.10;99.90
31695;DHT22;18289;51.330;4.946;2024-02-26T04:45:45;6.20;99.90
31695;DHT22;18289;51.330;4.946;2024-02-26T04:48:11;6.30;99.90
31695;DHT22;18289;51.330;4.946;2024-02-26T04:50:37;6.20;99.90
31695;DHT22;18289;51.330;4.946;2024-02-26T04:53:02;6.10;99.90
31695;DHT22;18289;51.330;4.946;2024-02-26T04:55:28;6.10;99.90
31695;DHT22;18289;51.330;4.946;2024-02-26T04:57:54;6.10;99.90
31695;DHT22;18289;51.330;4.946;2024-02-26T05:00:19;6.10;99.90
31695;DHT22;18289;51.330;4.946;2024-02-26T05:02:45;6.20;99.90
31695;DHT22;18289;51.330;4.946;2024-02-26T05:05:11;6.10;99.90
31695;DHT22;18289;51.330;4.946;2024-02-26T05:07:41;6.10;99.90
31695;DHT22;18289;51.330;4.946;2024-02-26T05:10:07;6.10;99.90
31695;DHT22;18289;51.330;4.946;2024-02-26T05:12:33;6.10;99.90
31695;DHT22;18289;51.330;4.946;2024-02-26T05:15:01;6.30;99.90
31695;DHT22;18289;51.330;4.946;2024-02-26T05:17:27;6.20;99.90
31695;DHT22;18289;51.330;4.946;2024-02-26T05:19:53;6.20;99.90
31695;DHT22;18289;51.330;4.946;2024-02-26T05:22:19;6.20;99.90
31695;DHT22;18289;51.330;4.946;2024-02-26T05:24:45;6.20;99.90
31695;DHT22;18289;51.330;4.946;2024-02-26T05:27:10;6.30;99.90
31695;DHT22;18289;51.330;4.946;2024-02-26T05:29:37;6.30;99.90
31695;DHT22;18289;51.330;4.946;2024-02-26T05:32:04;6.30;99.90
31695;DHT22;18289;51.330;4.946;2024-02-26T05:34:30;6.30;99.90
31695;DHT22;18289;51.330;4.946;2024-02-26T05:36:56;6.30;99.90
31695;DHT22;18289;51.330;4.946;2024-02-26T05:39:21;6.20;99.90
31695;DHT22;18289;51.330;4.946;2024-02-26T05:41:47;6.20;99.90
31695;DHT22;18289;51.330;4.946;2024-02-26T05:44:14;6.30;99.90
31695;DHT22;18289;51.330;4.946;2024-02-26T05:46:41;6.20;99.90
31695;DHT22;18289;51.330;4.946;2024-02-26T05:49:07;6.10;99.90
31695;DHT22;18289;51.330;4.946;2024-02-26T05:51:33;6.30;99.90
31695;DHT22;18289;51.330;4.946;2024-02-26T05:53:59;6.30;99.90
31695;DHT22;18289;51.330;4.946;2024-02-26T05:56:24;6.30;99.90
31695;DHT22;18289;51.330;4.946;2024-02-26T05:58:50;6.20;99.90
31695;DHT22;18289;51.330;4.946;2024-02-26T06:01:17;6.20;99.90
31695;DHT22;18289;51.330;4.946;2024-02-26T06:03:43;6.20;99.90
31695;DHT22;18289;51.330;4.946;2024-02-26T06:06:13;6.20;99.90
31695;DHT22;18289;51.330;4.946;2024-02-26T06:08:40;6.10;99.90
31695;DHT22;18289;51.330;4.946;2024-02-26T06:11:07;6.10;99.90
31695;DHT22;18289;51.330;4.946;2024-02-26T06:13:33;6.10;99.90
31695;DHT22;18289;51.330;4.946;2024-02-26T06:15:59;6.10;99.90
31695;DHT22;18289;51.330;4.946;2024-02-26T06:18:25;6.10;99.90
31695;DHT22;18289;51.330;4.946;2024-02-26T06:20:50;6.10;99.90
31695;DHT22;18289;51.330;4.946;2024-02-26T06:23:16;6.10;99.90
31695;DHT22;18289;51.330;4.946;2024-02-26T06:25:42;6.10;99.90
31695;DHT22;18289;51.330;4.946;2024-02-26T06:28:11;6.10;99.90
31695;DHT22;18289;51.330;4.946;2024-02-26T06:30:36;6.20;99.90
31695;DHT22;18289;51.330;4.946;2024-02-26T06:33:02;6.20;99.90
31695;DHT22;18289;51.330;4.946;2024-02-26T06:35:28;6.20;99.90
31695;DHT22;18289;51.330;4.946;2024-02-26T06:37:54;6.10;99.90
31695;DHT22;18289;51.330;4.946;2024-02-26T06:40:20;6.00;99.90
31695;DHT22;18289;51.330;4.946;2024-02-26T06:42:46;6.00;99.90
31695;DHT22;18289;51.330;4.946;2024-02-26T06:45:11;6.10;99.90
31695;DHT22;18289;51.330;4.946;2024-02-26T06:47:37;6.00;99.90
31695;DHT22;18289;51.330;4.946;2024-02-26T06:52:31;6.10;99.90
31695;DHT22;18289;51.330;4.946;2024-02-26T06:54:57;6.20;99.90
31695;DHT22;18289;51.330;4.946;2024-02-26T06:57:22;6.10;99.90
31695;DHT22;18289;51.330;4.946;2024-02-26T06:59:49;6.20;99.90
31695;DHT22;18289;51.330;4.946;2024-02-26T07:02:15;6.20;99.90
31695;DHT22;18289;51.330;4.946;2024-02-26T07:04:42;6.20;99.90
31695;DHT22;18289;51.330;4.946;2024-02-26T07:07:08;6.10;99.90
31695;DHT22;18289;51.330;4.946;2024-02-26T07:09:34;6.20;99.90
31695;DHT22;18289;51.330;4.946;2024-02-26T07:11:59;6.10;99.90
31695;DHT22;18289;51.330;4.946;2024-02-26T07:14:25;6.20;99.90
31695;DHT22;18289;51.330;4.946;2024-02-26T07:16:51;6.10;99.90
31695;DHT22;18289;51.330;4.946;2024-02-26T07:19:16;6.20;99.90
31695;DHT22;18289;51.330;4.946;2024-02-26T07:21:42;6.00;99.90
31695;DHT22;18289;51.330;4.946;2024-02-26T07:24:08;6.20;99.90
31695;DHT22;18289;51.330;4.946;2024-02-26T07:26:34;6.20;99.90
31695;DHT22;18289;51.330;4.946;2024-02-26T07:29:00;6.10;99.90
31695;DHT22;18289;51.330;4.946;2024-02-26T07:31:26;6.00;99.90
31695;DHT22;18289;51.330;4.946;2024-02-26T07:33:52;5.90;99.90
31695;DHT22;18289;51.330;4.946;2024-02-26T07:36:18;6.00;99.90
31695;DHT22;18289;51.330;4.946;2024-02-26T07:38:43;6.00;99.90
31695;DHT22;18289;51.330;4.946;2024-02-26T07:41:09;5.90;99.90
31695;DHT22;18289;51.330;4.946;2024-02-26T07:43:35;6.00;99.90
31695;DHT22;18289;51.330;4.946;2024-02-26T07:46:01;6.00;99.90
31695;DHT22;18289;51.330;4.946;2024-02-26T07:48:27;5.90;99.90
31695;DHT22;18289;51.330;4.946;2024-02-26T07:50:53;6.00;99.90
31695;DHT22;18289;51.330;4.946;2024-02-26T07:53:19;6.10;99.90
31695;DHT22;18289;51.330;4.946;2024-02-26T07:55:44;6.10;99.90
31695;DHT22;18289;51.330;4.946;2024-02-26T07:58:10;6.10;99.90
31695;DHT22;18289;51.330;4.946;2024-02-26T08:00:36;6.10;99.90
31695;DHT22;18289;51.330;4.946;2024-02-26T08:03:02;6.20;99.90
31695;DHT22;18289;51.330;4.946;2024-02-26T08:05:28;6.00;99.90
31695;DHT22;18289;51.330;4.946;2024-02-26T08:07:53;6.00;99.90
31695;DHT22;18289;51.330;4.946;2024-02-26T08:10:20;5.90;99.90
31695;DHT22;18289;51.330;4.946;2024-02-26T08:12:46;5.90;99.90
31695;DHT22;18289;51.330;4.946;2024-02-26T08:15:11;6.00;99.90
31695;DHT22;18289;51.330;4.946;2024-02-26T08:17:37;6.10;99.90
31695;DHT22;18289;51.330;4.946;2024-02-26T08:20:04;6.10;99.90
31695;DHT22;18289;51.330;4.946;2024-02-26T08:22:29;6.20;99.90
31695;DHT22;18289;51.330;4.946;2024-02-26T08:24:55;6.20;99.90
31695;DHT22;18289;51.330;4.946;2024-02-26T08:27:21;6.20;99.90
31695;DHT22;18289;51.330;4.946;2024-02-26T08:29:51;6.20;99.90
31695;DHT22;18289;51.330;4.946;2024-02-26T08:32:16;6.30;99.90
31695;DHT22;18289;51.330;4.946;2024-02-26T08:34:42;6.20;99.90
31695;DHT22;18289;51.330;4.946;2024-02-26T08:37:08;6.30;99.90
31695;DHT22;18289;51.330;4.946;2024-02-26T08:39:33;6.20;99.90
31695;DHT22;18289;51.330;4.946;2024-02-26T08:41:59;6.10;99.90
31695;DHT22;18289;51.330;4.946;2024-02-26T08:44:25;6.00;99.90
31695;DHT22;18289;51.330;4.946;2024-02-26T08:46:51;6.00;99.90
31695;DHT22;18289;51.330;4.946;2024-02-26T08:49:17;6.10;99.90
31695;DHT22;18289;51.330;4.946;2024-02-26T08:51:43;6.10;99.90
31695;DHT22;18289;51.330;4.946;2024-02-26T08:54:11;6.20;99.90
31695;DHT22;18289;51.330;4.946;2024-02-26T08:56:37;6.20;99.90
31695;DHT22;18289;51.330;4.946;2024-02-26T08:59:03;6.20;99.90
31695;DHT22;18289;51.330;4.946;2024-02-26T09:01:30;6.10;99.90
31695;DHT22;18289;51.330;4.946;2024-02-26T09:03:56;6.10;99.90
31695;DHT22;18289;51.330;4.946;2024-02-26T09:06:22;6.20;99.90
31695;DHT22;18289;51.330;4.946;2024-02-26T09:08:48;6.20;99.90
31695;DHT22;18289;51.330;4.946;2024-02-26T09:11:13;6.20;99.90
31695;DHT22;18289;51.330;4.946;2024-02-26T09:13:39;6.20;99.90
31695;DHT22;18289;51.330;4.946;2024-02-26T09:16:06;6.20;99.90
31695;DHT22;18289;51.330;4.946;2024-02-26T09:18:31;6.20;99.90
31695;DHT22;18289;51.330;4.946;2024-02-26T09:20:57;6.20;99.90
31695;DHT22;18289;51.330;4.946;2024-02-26T09:23:23;6.30;99.90
31695;DHT22;18289;51.330;4.946;2024-02-26T09:25:49;6.20;99.90
31695;DHT22;18289;51.330;4.946;2024-02-26T09:28:14;6.20;99.90
31695;DHT22;18289;51.330;4.946;2024-02-26T09:30:44;6.30;99.90
31695;DHT22;18289;51.330;4.946;2024-02-26T09:33:09;6.20;99.90
31695;DHT22;18289;51.330;4.946;2024-02-26T09:35:35;6.20;99.90
31695;DHT22;18289;51.330;4.946;2024-02-26T09:38:01;6.30;99.90
31695;DHT22;18289;51.330;4.946;2024-02-26T09:40:27;6.20;99.90
31695;DHT22;18289;51.330;4.946;2024-02-26T09:42:59;6.20;99.90
31695;DHT22;18289;51.330;4.946;2024-02-26T09:45:26;6.20;99.90
31695;DHT22;18289;51.330;4.946;2024-02-26T09:47:55;6.20;99.90
31695;DHT22;18289;51.330;4.946;2024-02-26T09:50:21;6.20;99.90
31695;DHT22;18289;51.330;4.946;2024-02-26T09:52:49;6.10;99.90
31695;DHT22;18289;51.330;4.946;2024-02-26T09:55:15;6.20;99.90
31695;DHT22;18289;51.330;4.946;2024-02-26T09:57:46;6.30;99.90
31695;DHT22;18289;51.330;4.946;2024-02-26T10:00:18;6.40;99.90
31695;DHT22;18289;51.330;4.946;2024-02-26T10:02:47;6.50;99.90
31695;DHT22;18289;51.330;4.946;2024-02-26T10:05:17;6.40;99.90
31695;DHT22;18289;51.330;4.946;2024-02-26T10:07:45;6.40;99.90
31695;DHT22;18289;51.330;4.946;2024-02-26T10:10:11;6.40;99.90
31695;DHT22;18289;51.330;4.946;2024-02-26T10:12:37;6.40;99.90
31695;DHT22;18289;51.330;4.946;2024-02-26T10:15:03;6.30;99.90
31695;DHT22;18289;51.330;4.946;2024-02-26T10:17:29;6.30;99.90
31695;DHT22;18289;51.330;4.946;2024-02-26T10:19:54;6.30;99.90
31695;DHT22;18289;51.330;4.946;2024-02-26T10:22:35;6.30;99.90
31695;DHT22;18289;51.330;4.946;2024-02-26T10:25:01;6.40;99.90
31695;DHT22;18289;51.330;4.946;2024-02-26T10:27:28;6.40;99.90
31695;DHT22;18289;51.330;4.946;2024-02-26T10:29:56;6.30;99.90
31695;DHT22;18289;51.330;4.946;2024-02-26T10:32:22;6.30;99.90
31695;DHT22;18289;51.330;4.946;2024-02-26T10:34:48;6.40;99.90
31695;DHT22;18289;51.330;4.946;2024-02-26T10:37:14;6.40;99.90
31695;DHT22;18289;51.330;4.946;2024-02-26T10:39:46;6.40;99.90
31695;DHT22;18289;51.330;4.946;2024-02-26T10:42:12;6.50;99.90
31695;DHT22;18289;51.330;4.946;2024-02-26T10:44:40;6.50;99.90
31695;DHT22;18289;51.330;4.946;2024-02-26T10:47:07;6.60;99.90
31695;DHT22;18289;51.330;4.946;2024-02-26T10:49:35;6.50;99.90
31695;DHT22;18289;51.330;4.946;2024-02-26T10:52:01;6.50;99.90
31695;DHT22;18289;51.330;4.946;2024-02-26T10:54:29;6.50;99.90
31695;DHT22;18289;51.330;4.946;2024-02-26T10:56:59;6.50;99.90
31695;DHT22;18289;51.330;4.946;2024-02-26T10:59:25;6.40;99.90
31695;DHT22;18289;51.330;4.946;2024-02-26T11:01:52;6.40;99.90
31695;DHT22;18289;51.330;4.946;2024-02-26T11:04:18;6.50;99.90
31695;DHT22;18289;51.330;4.946;2024-02-26T11:06:45;6.50;99.90
31695;DHT22;18289;51.330;4.946;2024-02-26T11:09:13;6.50;99.90
31695;DHT22;18289;51.330;4.946;2024-02-26T11:11:40;6.50;99.90
31695;DHT22;18289;51.330;4.946;2024-02-26T11:14:08;6.50;99.90
31695;DHT22;18289;51.330;4.946;2024-02-26T11:16:35;6.50;99.90
31695;DHT22;18289;51.330;4.946;2024-02-26T11:19:02;6.40;99.90
31695;DHT22;18289;51.330;4.946;2024-02-26T11:21:28;6.40;99.90
31695;DHT22;18289;51.330;4.946;2024-02-26T11:24:05;6.50;99.90
31695;DHT22;18289;51.330;4.946;2024-02-26T11:26:34;6.50;99.90
31695;DHT22;18289;51.330;4.946;2024-02-26T11:29:01;6.40;99.90
31695;DHT22;18289;51.330;4.946;2024-02-26T11:31:28;6.30;99.90
31695;DHT22;18289;51.330;4.946;2024-02-26T11:33:56;6.20;99.90
31695;DHT22;18289;51.330;4.946;2024-02-26T11:36:23;6.20;99.90
31695;DHT22;18289;51.330;4.946;2024-02-26T11:38:49;6.20;99.90
31695;DHT22;18289;51.330;4.946;2024-02-26T11:41:18;6.20;99.90
31695;DHT22;18289;51.330;4.946;2024-02-26T11:43:57;6.20;99.90
31695;DHT22;18289;51.330;4.946;2024-02-26T11:46:31;6.30;99.90
31695;DHT22;18289;51.330;4.946;2024-02-26T11:49:01;6.30;99.90
31695;DHT22;18289;51.330;4.946;2024-02-26T11:51:28;6.20;99.90
31695;DHT22;18289;51.330;4.946;2024-02-26T11:53:57;6.20;99.90
31695;DHT22;18289;51.330;4.946;2024-02-26T11:56:24;6.10;99.90
31695;DHT22;18289;51.330;4.946;2024-02-26T11:59:05;6.20;99.90
31695;DHT22;18289;51.330;4.946;2024-02-26T12:01:50;6.10;99.90
31695;DHT22;18289;51.330;4.946;2024-02-26T12:04:25;6.20;99.90
31695;DHT22;18289;51.330;4.946;2024-02-26T12:07:01;6.10;99.90
31695;DHT22;18289;51.330;4.946;2024-02-26T12:09:39;6.10;99.90
31695;DHT22;18289;51.330;4.946;2024-02-26T12:12:07;6.20;99.90
31695;DHT22;18289;51.330;4.946;2024-02-26T12:14:39;6.30;99.90
31695;DHT22;18289;51.330;4.946;2024-02-26T12:17:19;6.30;99.90
31695;DHT22;18289;51.330;4.946;2024-02-26T12:19:45;6.20;99.90
31695;DHT22;18289;51.330;4.946;2024-02-26T12:22:13;6.10;99.90
31695;DHT22;18289;51.330;4.946;2024-02-26T12:24:39;6.10;99.90
31695;DHT22;18289;51.330;4.946;2024-02-26T12:27:05;6.30;99.90
31695;DHT22;18289;51.330;4.946;2024-02-26T12:29:31;6.30;99.90
31695;DHT22;18289;51.330;4.946;2024-02-26T12:31:57;6.20;99.90
31695;DHT22;18289;51.330;4.946;2024-02-26T12:34:23;6.30;99.90
31695;DHT22;18289;51.330;4.946;2024-02-26T12:36:49;6.30;99.90
31695;DHT22;18289;51.330;4.946;2024-02-26T12:39:16;6.30;99.90
31695;DHT22;18289;51.330;4.946;2024-02-26T12:41:41;6.40;99.90
31695;DHT22;18289;51.330;4.946;2024-02-26T12:44:15;6.50;99.90
31695;DHT22;18289;51.330;4.946;2024-02-26T12:46:41;6.60;99.90
31695;DHT22;18289;51.330;4.946;2024-02-26T12:49:07;6.50;99.90
31695;DHT22;18289;51.330;4.946;2024-02-26T12:51:33;6.50;99.90
31695;DHT22;18289;51.330;4.946;2024-02-26T12:53:59;6.40;99.90
31695;DHT22;18289;51.330;4.946;2024-02-26T12:56:26;6.40;99.90
31695;DHT22;18289;51.330;4.946;2024-02-26T12:58:53;6.40;99.90
31695;DHT22;18289;51.330;4.946;2024-02-26T13:01:22;6.30;99.90
31695;DHT22;18289;51.330;4.946;2024-02-26T13:03:48;6.30;99.90
31695;DHT22;18289;51.330;4.946;2024-02-26T13:06:14;6.30;99.90
31695;DHT22;18289;51.330;4.946;2024-02-26T13:08:40;6.40;99.90
31695;DHT22;18289;51.330;4.946;2024-02-26T13:11:06;6.40;99.90
31695;DHT22;18289;51.330;4.946;2024-02-26T13:13:32;6.30;99.90
31695;DHT22;18289;51.330;4.946;2024-02-26T13:16:05;6.30;99.90
31695;DHT22;18289;51.330;4.946;2024-02-26T13:18:33;6.30;99.90
31695;DHT22;18289;51.330;4.946;2024-02-26T13:21:19;6.40;99.90
31695;DHT22;18289;51.330;4.946;2024-02-26T13:23:52;6.40;99.90
31695;DHT22;18289;51.330;4.946;2024-02-26T13:26:22;6.30;99.90
31695;DHT22;18289;51.330;4.946;2024-02-26T13:28:59;6.50;99.90
31695;DHT22;18289;51.330;4.946;2024-02-26T13:31:25;6.60;99.90
31695;DHT22;18289;51.330;4.946;2024-02-26T13:33:51;6.40;99.90
31695;DHT22;18289;51.330;4.946;2024-02-26T13:36:21;6.40;99.90
31695;DHT22;18289;51.330;4.946;2024-02-26T13:38:54;6.40;99.90
31695;DHT22;18289;51.330;4.946;2024-02-26T13:41:20;6.50;99.90
31695;DHT22;18289;51.330;4.946;2024-02-26T13:43:46;6.60;99.90
31695;DHT22;18289;51.330;4.946;2024-02-26T13:46:12;6.40;99.90
31695;DHT22;18289;51.330;4.946;2024-02-26T13:48:40;6.50;99.90
31695;DHT22;18289;51.330;4.946;2024-02-26T13:51:07;6.50;99.90
31695;DHT22;18289;51.330;4.946;2024-02-26T13:53:32;6.70;99.90
31695;DHT22;18289;51.330;4.946;2024-02-26T13:55:58;6.70;99.90
31695;DHT22;18289;51.330;4.946;2024-02-26T13:58:27;6.60;99.90
31695;DHT22;18289;51.330;4.946;2024-02-26T14:00:55;6.60;99.90
31695;DHT22;18289;51.330;4.946;2024-02-26T14:03:22;6.40;99.90
31695;DHT22;18289;51.330;4.946;2024-02-26T14:05:47;6.40;99.90
31695;DHT22;18289;51.330;4.946;2024-02-26T14:08:14;6.40;99.90
31695;DHT22;18289;51.330;4.946;2024-02-26T14:10:40;6.40;99.90
31695;DHT22;18289;51.330;4.946;2024-02-26T14:13:05;6.40;99.90
31695;DHT22;18289;51.330;4.946;2024-02-26T14:15:31;6.40;99.90
31695;DHT22;18289;51.330;4.946;2024-02-26T14:17:58;6.50;99.90
31695;DHT22;18289;51.330;4.946;2024-02-26T14:20:24;6.50;99.90
31695;DHT22;18289;51.330;4.946;2024-02-26T14:22:51;6.50;99.90
31695;DHT22;18289;51.330;4.946;2024-02-26T14:25:19;6.40;99.90
31695;DHT22;18289;51.330;4.946;2024-02-26T14:27:46;6.40;99.90
31695;DHT22;18289;51.330;4.946;2024-02-26T14:30:12;6.40;99.90
31695;DHT22;18289;51.330;4.946;2024-02-26T14:32:38;6.40;99.90
31695;DHT22;18289;51.330;4.946;2024-02-26T14:35:07;6.30;99.90
31695;DHT22;18289;51.330;4.946;2024-02-26T14:37:35;6.30;99.90
31695;DHT22;18289;51.330;4.946;2024-02-26T14:40:01;6.40;99.90
31695;DHT22;18289;51.330;4.946;2024-02-26T14:42:28;6.40;99.90
31695;DHT22;18289;51.330;4.946;2024-02-26T14:44:54;6.50;99.90
31695;DHT22;18289;51.330;4.946;2024-02-26T14:47:20;6.50;99.90
31695;DHT22;18289;51.330;4.946;2024-02-26T14:49:45;6.60;99.90
31695;DHT22;18289;51.330;4.946;2024-02-26T14:52:16;6.50;99.90
31695;DHT22;18289;51.330;4.946;2024-02-26T14:54:42;6.40;99.90
31695;DHT22;18289;51.330;4.946;2024-02-26T14:57:08;6.50;99.90
31695;DHT22;18289;51.330;4.946;2024-02-26T14:59:34;6.50;99.90
31695;DHT22;18289;51.330;4.946;2024-02-26T15:02:02;6.60;99.90
31695;DHT22;18289;51.330;4.946;2024-02-26T15:04:28;6.60;99.90
31695;DHT22;18289;51.330;4.946;2024-02-26T15:06:53;6.50;99.90
31695;DHT22;18289;51.330;4.946;2024-02-26T15:09:19;6.50;99.90
31695;DHT22;18289;51.330;4.946;2024-02-26T15:11:45;6.50;99.90
31695;DHT22;18289;51.330;4.946;2024-02-26T15:14:10;6.60;99.90
31695;DHT22;18289;51.330;4.946;2024-02-26T15:16:36;6.60;99.90
31695;DHT22;18289;51.330;4.946;2024-02-26T15:19:02;6.60;99.90
31695;DHT22;18289;51.330;4.946;2024-02-26T15:21:32;6.60;99.90
31695;DHT22;18289;51.330;4.946;2024-02-26T15:23:58;6.50;99.90
31695;DHT22;18289;51.330;4.946;2024-02-26T15:26:24;6.40;99.90
31695;DHT22;18289;51.330;4.946;2024-02-26T15:28:51;6.50;99.90
31695;DHT22;18289;51.330;4.946;2024-02-26T15:31:19;6.40;99.90
31695;DHT22;18289;51.330;4.946;2024-02-26T15:33:44;6.40;99.90
31695;DHT22;18289;51.330;4.946;2024-02-26T15:36:10;6.40;99.90
31695;DHT22;18289;51.330;4.946;2024-02-26T15:38:36;6.40;99.90
31695;DHT22;18289;51.330;4.946;2024-02-26T15:41:02;6.40;99.90
31695;DHT22;18289;51.330;4.946;2024-02-26T15:43:28;6.40;99.90
31695;DHT22;18289;51.330;4.946;2024-02-26T15:45:54;6.40;99.90
31695;DHT22;18289;51.330;4.946;2024-02-26T15:48:19;6.40;99.90
31695;DHT22;18289;51.330;4.946;2024-02-26T15:50:45;6.40;99.90